Time;durP1;ratioP1;P1;durP2;ratioP2;P2;SDS_P1;SDS_P2;PMS_P1;PMS_P2;Temp;Humidity;BMP_temperature;BMP_pressure;BME280_temperature;BME280_humidity;BME280_pressure;Samples;Min_cycle;Max_cycle;Signal;HPM_P1;HPM_P2
2022/07/03 00:01:33;;;;;;;9.02;6.88;;;23.40;65.30;;;;;;5094315;28;20027;-13
2022/07/03 00:03:59;;;;;;;10.10;6.80;;;23.40;65.50;;;;;;5094368;28;20032;-13
2022/07/03 00:06:26;;;;;;;9.90;6.28;;;23.30;65.50;;;;;;5093526;28;20052;-12
2022/07/03 00:08:53;;;;;;;12.20;6.47;;;23.30;65.50;;;;;;5094246;28;20031;-13
2022/07/03 00:11:20;;;;;;;13.02;7.72;;;23.30;65.50;;;;;;5094294;28;20028;-13
2022/07/03 00:13:46;;;;;;;12.55;7.57;;;23.30;65.70;;;;;;5093026;28;20020;-12
2022/07/03 00:16:12;;;;;;;10.98;7.05;;;23.30;65.80;;;;;;5094196;28;20024;-13
2022/07/03 00:18:39;;;;;;;10.18;7.28;;;23.30;66.30;;;;;;5093850;28;20476;-13
2022/07/03 00:21:08;;;;;;;11.77;6.88;;;23.30;66.00;;;;;;5093663;28;20105;-13
2022/07/03 00:23:55;;;;;;;11.18;7.00;;;23.20;66.20;;;;;;5094373;28;20039;-13
2022/07/03 00:26:22;;;;;;;10.60;6.95;;;23.30;67.10;;;;;;5093770;28;20352;-14
2022/07/03 00:28:49;;;;;;;12.07;6.47;;;23.20;66.50;;;;;;5094044;28;20030;-13
2022/07/03 00:31:15;;;;;;;12.57;7.03;;;23.20;65.80;;;;;;5093991;28;20095;-13
2022/07/03 00:33:42;;;;;;;12.90;6.55;;;23.20;65.60;;;;;;5094193;28;20483;-13
2022/07/03 00:36:08;;;;;;;15.98;8.75;;;23.20;65.50;;;;;;5093564;28;20016;-13
2022/07/03 00:38:34;;;;;;;9.98;6.32;;;23.20;65.60;;;;;;5093959;28;20554;-14
2022/07/03 00:41:03;;;;;;;9.25;6.30;;;23.20;65.50;;;;;;5093502;28;20123;-13
2022/07/03 00:43:29;;;;;;;10.10;6.47;;;23.20;65.40;;;;;;5093673;28;20091;-13
2022/07/03 00:46:06;;;;;;;8.80;7.00;;;23.30;65.30;;;;;;5093413;28;20111;-13
2022/07/03 00:48:38;;;;;;;9.48;6.07;;;23.30;65.40;;;;;;5093179;28;20028;-13
2022/07/03 00:51:08;;;;;;;11.40;6.47;;;23.30;65.30;;;;;;5093611;28;20034;-13
2022/07/03 00:53:37;;;;;;;9.82;5.57;;;23.20;65.40;;;;;;5093297;28;20517;-13
2022/07/03 00:56:05;;;;;;;16.83;8.25;;;23.30;65.30;;;;;;5093317;28;20031;-13
2022/07/03 00:58:34;;;;;;;8.43;5.68;;;23.20;65.50;;;;;;5093316;28;20032;-13
2022/07/03 01:01:00;;;;;;;9.63;6.00;;;23.20;65.30;;;;;;5093546;28;20032;-13
2022/07/03 01:03:29;;;;;;;9.43;5.93;;;23.20;65.40;;;;;;5093086;28;20510;-13
2022/07/03 01:05:59;;;;;;;7.47;5.20;;;23.20;65.40;;;;;;5093132;28;20496;-12
2022/07/03 01:08:38;;;;;;;10.32;5.18;;;23.10;65.50;;;;;;5092948;28;20027;-13
2022/07/03 01:11:21;;;;;;;10.48;5.25;;;23.10;65.30;;;;;;5097871;28;20020;-12
2022/07/03 01:13:56;;;;;;;;;;;23.00;65.40;;;;;;5098104;28;20036;-14
2022/07/03 01:16:31;;;;;;;11.65;5.38;;;23.00;66.30;;;;;;5097477;28;19955;-13
2022/07/03 01:19:02;;;;;;;8.98;4.55;;;23.00;65.30;;;;;;5097354;28;20024;-13
2022/07/03 01:21:38;;;;;;;7.80;4.97;;;22.90;65.20;;;;;;5097213;28;20031;-12
2022/07/03 01:24:43;;;;;;;9.40;5.25;;;23.00;65.40;;;;;;5097184;28;20028;-13
2022/07/03 01:27:27;;;;;;;6.63;4.78;;;22.90;65.70;;;;;;5089343;28;20044;-13
2022/07/03 01:29:59;;;;;;;8.23;5.20;;;22.90;65.40;;;;;;5097124;28;20034;-13
2022/07/03 01:32:31;;;;;;;10.30;5.78;;;22.90;65.50;;;;;;5096932;28;20110;-13
2022/07/03 01:35:00;;;;;;;8.95;5.30;;;22.90;65.60;;;;;;5097382;28;20024;-13
2022/07/03 01:37:29;;;;;;;9.45;4.80;;;22.90;65.70;;;;;;5096863;28;20020;-12
2022/07/03 01:39:58;;;;;;;8.80;5.38;;;22.80;65.80;;;;;;5096860;28;20059;-13
2022/07/03 01:42:25;;;;;;;9.25;5.80;;;22.80;65.90;;;;;;5096694;28;20506;-13
2022/07/03 01:44:58;;;;;;;11.88;6.13;;;22.80;66.00;;;;;;5097104;28;20027;-11
2022/07/03 01:47:25;;;;;;;8.52;5.90;;;22.80;66.20;;;;;;5097057;28;20024;-13
2022/07/03 01:49:53;;;;;;;6.20;4.40;;;22.80;66.20;;;;;;5097329;28;20055;-14
2022/07/03 01:52:21;;;;;;;7.40;4.63;;;22.80;66.10;;;;;;5095273;28;20024;-14
2022/07/03 01:54:49;;;;;;;8.60;4.60;;;22.80;66.10;;;;;;5096550;28;20580;-13
2022/07/03 01:57:15;;;;;;;6.97;4.50;;;22.80;66.10;;;;;;5096817;28;20043;-12
2022/07/03 01:59:42;;;;;;;10.23;4.82;;;22.80;66.20;;;;;;5096543;28;20157;-13
2022/07/03 02:02:29;;;;;;;6.35;4.15;;;22.80;66.20;;;;;;5096480;28;20032;-13
2022/07/03 02:05:06;;;;;;;5.82;4.13;;;22.80;66.30;;;;;;5096416;28;20032;-12
2022/07/03 02:07:59;;;;;;;6.93;4.20;;;22.70;66.20;;;;;;5096544;28;20510;-13
2022/07/03 02:10:37;;;;;;;9.02;4.70;;;22.70;66.20;;;;;;5096095;28;20035;-13
2022/07/03 02:13:35;;;;;;;5.88;4.38;;;22.60;66.20;;;;;;5096335;28;20040;-13
2022/07/03 02:16:01;;;;;;;8.05;4.80;;;22.60;66.80;;;;;;5096310;28;20099;-13
2022/07/03 02:18:35;;;;;;;8.15;4.38;;;22.50;66.70;;;;;;5096270;28;20111;-13
2022/07/03 02:21:10;;;;;;;7.32;4.20;;;22.50;66.90;;;;;;5095222;28;20024;-13
2022/07/03 02:23:45;;;;;;;7.00;4.15;;;22.40;67.00;;;;;;5096966;28;20028;-13
2022/07/03 02:26:16;;;;;;;7.72;4.03;;;22.40;67.10;;;;;;5096364;28;20051;-13
2022/07/03 02:29:03;;;;;;;7.20;4.22;;;22.40;67.20;;;;;;5096326;28;20064;-13
2022/07/03 02:31:44;;;;;;;7.53;4.50;;;22.40;68.20;;;;;;5095923;28;20016;-13
2022/07/03 02:34:16;;;;;;;6.82;4.40;;;22.30;67.30;;;;;;5094693;28;20032;-13
2022/07/03 02:36:47;;;;;;;7.28;4.38;;;22.30;67.30;;;;;;5096518;28;20025;-12
2022/07/03 02:39:29;;;;;;;7.78;4.80;;;22.30;67.40;;;;;;5095825;28;20024;-13
2022/07/03 02:42:02;;;;;;;7.75;4.82;;;22.20;67.50;;;;;;5094507;28;20464;-13
2022/07/03 02:44:50;;;;;;;9.93;5.00;;;22.20;67.60;;;;;;5095470;28;20040;-12
2022/07/03 02:49:53;;;;;;;8.65;4.53;;;22.10;67.70;;;;;;5149179;22;20098;-17
2022/07/03 02:52:44;;;;;;;11.05;5.50;;;22.00;68.00;;;;;;5075155;28;20031;-18
2022/07/03 02:55:34;;;;;;;7.47;4.72;;;22.00;68.10;;;;;;5075563;28;20029;-17
2022/07/03 02:58:27;;;;;;;8.60;5.28;;;21.90;68.30;;;;;;5075475;28;20445;-17
2022/07/03 03:00:59;;;;;;;10.90;4.88;;;21.90;68.40;;;;;;5075167;28;20020;-16
2022/07/03 03:03:30;;;;;;;8.30;5.15;;;21.80;68.60;;;;;;5075332;28;20025;-16
2022/07/03 03:06:03;;;;;;;8.60;5.07;;;21.70;68.70;;;;;;5075227;28;20020;-17
2022/07/03 03:08:35;;;;;;;9.37;5.83;;;21.70;68.80;;;;;;5075054;28;20476;-16
2022/07/03 03:11:09;;;;;;;7.65;5.15;;;21.70;69.00;;;;;;5074968;28;20610;-16
2022/07/03 03:13:36;;;;;;;8.18;5.68;;;21.70;69.20;;;;;;5074901;28;20060;-16
2022/07/03 03:16:13;;;;;;;8.73;4.85;;;21.60;69.20;;;;;;5075063;28;20460;-16
2022/07/03 03:18:41;;;;;;;10.70;5.70;;;21.60;69.50;;;;;;5075206;28;20112;-16
2022/07/03 03:21:11;;;;;;;13.40;6.53;;;21.60;69.40;;;;;;5075074;28;20017;-16
2022/07/03 03:23:52;;;;;;;7.93;5.93;;;21.50;69.60;;;;;;5074543;28;20028;-16
2022/07/03 03:26:23;;;;;;;11.02;6.43;;;21.50;70.00;;;;;;5075275;28;20028;-15
2022/07/03 03:28:51;;;;;;;10.25;5.80;;;21.40;70.00;;;;;;5074738;28;20028;-18
2022/07/03 03:31:19;;;;;;;9.20;5.80;;;21.40;70.10;;;;;;5074523;28;20553;-16
2022/07/03 03:33:53;;;;;;;10.23;5.75;;;21.40;70.30;;;;;;5074419;28;20024;-16
2022/07/03 03:36:21;;;;;;;10.25;6.15;;;21.40;70.40;;;;;;5074107;28;20029;-16
2022/07/03 03:38:48;;;;;;;9.23;6.22;;;21.40;70.30;;;;;;5056595;28;20021;-17
2022/07/03 03:41:14;;;;;;;11.18;6.13;;;21.40;70.30;;;;;;5074622;28;20062;-16
2022/07/03 03:43:41;;;;;;;10.85;6.75;;;21.40;70.30;;;;;;5074245;28;20028;-16
2022/07/03 03:46:07;;;;;;;7.50;5.82;;;21.40;70.30;;;;;;5074523;28;20025;-17
2022/07/03 03:48:34;;;;;;;9.60;6.05;;;21.40;70.40;;;;;;5082056;28;20131;-18
2022/07/03 03:51:02;;;;;;;8.23;5.60;;;21.40;70.40;;;;;;5094329;28;20038;-16
2022/07/03 03:53:29;;;;;;;9.35;6.40;;;21.40;70.40;;;;;;5094182;28;20016;-16
2022/07/03 03:56:06;;;;;;;9.25;6.43;;;21.40;70.30;;;;;;5094179;28;20028;-16
2022/07/03 03:58:34;;;;;;;10.10;6.63;;;21.40;70.40;;;;;;5093888;28;20110;-16
2022/07/03 04:01:02;;;;;;;8.48;5.90;;;21.40;70.40;;;;;;5094121;28;20497;-17
2022/07/03 04:03:29;;;;;;;10.77;5.63;;;21.40;70.40;;;;;;5094040;28;20032;-16
2022/07/03 04:05:56;;;;;;;9.75;5.85;;;21.40;70.60;;;;;;5094059;28;20571;-16
2022/07/03 04:08:23;;;;;;;9.80;5.55;;;21.50;70.30;;;;;;5094055;28;20028;-16
2022/07/03 04:10:50;;;;;;;10.13;6.65;;;21.50;70.20;;;;;;5093835;28;20487;-16
2022/07/03 04:13:17;;;;;;;12.65;7.57;;;21.60;70.10;;;;;;5093912;28;20107;-16
2022/07/03 04:15:43;;;;;;;8.73;5.60;;;21.60;70.20;;;;;;5093959;28;20020;-18
2022/07/03 04:18:09;;;;;;;11.02;6.20;;;21.70;69.90;;;;;;5093806;28;20439;-16
2022/07/03 04:20:35;;;;;;;10.40;6.00;;;21.70;69.80;;;;;;5093570;28;20530;-16
2022/07/03 04:23:01;;;;;;;10.07;5.50;;;21.80;69.80;;;;;;5093745;28;20085;-18
2022/07/03 04:25:28;;;;;;;6.85;5.15;;;21.80;69.70;;;;;;5094059;28;20103;-17
2022/07/03 04:27:54;;;;;;;8.77;5.38;;;21.90;69.70;;;;;;5093756;28;20558;-17
2022/07/03 04:30:20;;;;;;;8.05;5.25;;;21.90;69.60;;;;;;5093552;28;20020;-17
2022/07/03 04:32:47;;;;;;;9.20;5.35;;;22.00;69.90;;;;;;5094046;28;20023;-17
2022/07/03 04:35:14;;;;;;;12.90;5.00;;;22.10;69.70;;;;;;5075460;28;20031;-15
2022/07/03 04:37:42;;;;;;;9.43;5.30;;;22.20;69.60;;;;;;5093577;28;20483;-16
2022/07/03 04:40:08;;;;;;;10.70;5.28;;;22.30;69.10;;;;;;5093755;28;20024;-16
2022/07/03 04:42:34;;;;;;;6.85;4.75;;;22.40;68.90;;;;;;5093228;28;20111;-16
2022/07/03 04:45:02;;;;;;;7.22;5.10;;;22.40;68.80;;;;;;5093321;28;20036;-16
2022/07/03 04:47:27;;;;;;;7.95;4.70;;;22.60;68.30;;;;;;5093761;28;20050;-17
2022/07/03 04:49:53;;;;;;;6.30;4.72;;;22.60;68.00;;;;;;5093147;28;20498;-15
2022/07/03 04:52:19;;;;;;;6.25;4.60;;;22.70;67.80;;;;;;5075135;28;20467;-16
2022/07/03 04:54:45;;;;;;;7.38;4.65;;;22.80;67.60;;;;;;5093691;28;20099;-16
2022/07/03 04:57:11;;;;;;;8.70;4.53;;;22.90;67.40;;;;;;5093369;28;20016;-16
2022/07/03 04:59:37;;;;;;;8.57;4.57;;;22.90;67.10;;;;;;5093151;28;20053;-17
2022/07/03 05:02:04;;;;;;;7.28;4.95;;;23.10;66.90;;;;;;5075248;28;20028;-17
2022/07/03 05:04:30;;;;;;;8.60;5.38;;;23.20;66.70;;;;;;5092805;28;20031;-17
2022/07/03 05:06:56;;;;;;;8.43;5.13;;;23.20;66.60;;;;;;5094039;28;20428;-16
2022/07/03 05:09:22;;;;;;;7.00;4.68;;;23.30;66.60;;;;;;5093403;28;20433;-16
2022/07/03 05:11:48;;;;;;;5.47;4.40;;;23.40;66.40;;;;;;5093729;28;20020;-16
2022/07/03 05:14:14;;;;;;;9.75;5.07;;;23.50;66.20;;;;;;5093440;28;20099;-16
2022/07/03 05:16:40;;;;;;;8.20;4.93;;;23.60;66.10;;;;;;5093398;28;20024;-16
2022/07/03 05:19:06;;;;;;;6.43;5.10;;;23.70;65.90;;;;;;5092997;28;20032;-17
2022/07/03 05:21:32;;;;;;;6.63;4.50;;;23.90;65.80;;;;;;5092841;28;20055;-16
2022/07/03 05:23:58;;;;;;;11.45;5.13;;;23.90;65.70;;;;;;5093019;28;20024;-15
2022/07/03 05:26:24;;;;;;;8.80;4.80;;;24.00;65.50;;;;;;5092889;28;20154;-15
2022/07/03 05:28:51;;;;;;;7.05;4.07;;;24.10;65.20;;;;;;5093668;28;20139;-15
2022/07/03 05:31:16;;;;;;;6.85;4.80;;;24.30;65.00;;;;;;5093003;28;20024;-15
2022/07/03 05:33:44;;;;;;;8.32;4.97;;;24.30;64.90;;;;;;5093453;28;20035;-15
2022/07/03 05:36:09;;;;;;;6.57;4.32;;;24.40;64.60;;;;;;5092928;28;20028;-16
2022/07/03 05:41:19;;;;;;;9.30;4.60;;;24.60;64.50;;;;;;5092999;28;20450;-16
2022/07/03 05:43:45;;;;;;;5.10;3.78;;;24.80;64.10;;;;;;5093023;28;20028;-17
2022/07/03 05:46:11;;;;;;;8.45;4.43;;;24.90;64.00;;;;;;5093064;28;20032;-17
2022/07/03 05:48:37;;;;;;;8.30;4.40;;;25.00;64.00;;;;;;5092349;28;20047;-16
2022/07/03 05:51:03;;;;;;;8.07;3.75;;;25.20;62.40;;;;;;5093104;28;20024;-16
2022/07/03 05:53:29;;;;;;;6.68;4.10;;;25.40;61.80;;;;;;5074887;28;20021;-16
2022/07/03 05:55:56;;;;;;;5.20;3.42;;;25.60;61.00;;;;;;5094657;28;20107;-17
2022/07/03 05:58:22;;;;;;;7.22;3.58;;;25.70;60.60;;;;;;5078217;28;20031;-16
2022/07/03 06:00:48;;;;;;;5.97;3.15;;;25.90;59.80;;;;;;5096563;28;20028;-16
2022/07/03 06:03:14;;;;;;;4.63;3.30;;;26.00;59.70;;;;;;5096620;28;20040;-15
2022/07/03 06:05:40;;;;;;;6.10;3.38;;;26.10;58.90;;;;;;5096411;28;20387;-16
2022/07/03 06:08:06;;;;;;;5.68;3.58;;;26.20;58.60;;;;;;5096638;28;20039;-16
2022/07/03 06:10:33;;;;;;;5.05;3.35;;;26.40;58.10;;;;;;5077961;28;20026;-16
2022/07/03 06:13:00;;;;;;;6.13;3.72;;;26.50;57.80;;;;;;5096612;28;20028;-16
2022/07/03 06:15:26;;;;;;;4.85;3.33;;;26.60;57.50;;;;;;5096869;28;20028;-15
2022/07/03 06:17:52;;;;;;;5.60;3.17;;;26.70;57.20;;;;;;5096018;28;20118;-17
2022/07/03 06:20:18;;;;;;;4.57;3.38;;;26.90;56.50;;;;;;5095771;28;20023;-17
2022/07/03 06:22:44;;;;;;;5.55;3.20;;;27.00;55.60;;;;;;5096049;28;20033;-16
2022/07/03 06:25:11;;;;;;;8.52;3.28;;;27.20;55.50;;;;;;5078395;28;20034;-15
2022/07/03 06:27:37;;;;;;;4.25;2.80;;;27.30;54.50;;;;;;5095985;28;20039;-16
2022/07/03 06:30:04;;;;;;;5.28;3.10;;;27.40;54.90;;;;;;5095912;28;20541;-17
2022/07/03 06:32:29;;;;;;;5.95;3.28;;;27.50;54.50;;;;;;5077637;28;20077;-16
2022/07/03 06:34:55;;;;;;;7.28;3.75;;;27.70;54.20;;;;;;5095962;28;20028;-15
2022/07/03 06:37:22;;;;;;;6.35;3.42;;;27.80;53.90;;;;;;5095891;28;20043;-16
2022/07/03 06:39:48;;;;;;;4.95;3.10;;;27.90;53.70;;;;;;5095936;28;20119;-15
2022/07/03 06:42:14;;;;;;;7.20;3.45;;;28.10;53.50;;;;;;5096049;28;20103;-16
2022/07/03 06:44:40;;;;;;;6.97;3.40;;;28.20;53.20;;;;;;5095909;28;20068;-15
2022/07/03 06:47:07;;;;;;;4.03;3.40;;;28.30;53.10;;;;;;5095638;28;20398;-15
2022/07/03 06:49:34;;;;;;;6.25;3.28;;;28.40;52.90;;;;;;5095296;28;20530;-15
2022/07/03 06:52:00;;;;;;;4.10;2.80;;;28.40;52.50;;;;;;5095946;28;20113;-15
2022/07/03 06:54:26;;;;;;;5.53;3.20;;;28.40;52.10;;;;;;5095224;28;20040;-16
2022/07/03 06:56:52;;;;;;;5.38;3.35;;;28.50;52.20;;;;;;5095735;28;20102;-16
2022/07/03 06:59:18;;;;;;;5.78;2.70;;;28.60;52.10;;;;;;5095323;28;20024;-13
2022/07/03 07:01:44;;;;;;;5.85;3.00;;;28.70;51.70;;;;;;5095443;28;20016;-15
2022/07/03 07:04:10;;;;;;;7.30;3.13;;;28.90;51.60;;;;;;5095208;28;20535;-15
2022/07/03 07:06:36;;;;;;;4.22;3.00;;;28.90;51.30;;;;;;5094728;28;20107;-15
2022/07/03 07:09:03;;;;;;;4.32;2.90;;;29.10;51.20;;;;;;5095285;28;20031;-15
2022/07/03 07:11:29;;;;;;;5.15;2.97;;;29.20;50.60;;;;;;5095434;28;20074;-16
2022/07/03 07:13:55;;;;;;;3.60;2.90;;;29.40;50.10;;;;;;5095253;28;20491;-16
2022/07/03 07:16:21;;;;;;;5.03;2.88;;;29.50;49.50;;;;;;5094848;28;20044;-15
2022/07/03 07:18:47;;;;;;;5.30;3.08;;;29.60;49.40;;;;;;5095209;28;20109;-15
2022/07/03 07:21:13;;;;;;;4.00;2.63;;;29.80;49.30;;;;;;5095270;28;20028;-15
2022/07/03 07:23:39;;;;;;;4.05;2.63;;;29.90;49.40;;;;;;5076923;28;20509;-15
2022/07/03 07:26:06;;;;;;;4.75;2.80;;;30.00;49.00;;;;;;5094781;28;20024;-14
2022/07/03 07:28:33;;;;;;;5.45;2.83;;;30.10;48.80;;;;;;5094573;28;20028;-14
2022/07/03 07:30:59;;;;;;;4.53;2.90;;;30.30;48.40;;;;;;5095259;28;20535;-16
2022/07/03 07:33:25;;;;;;;3.90;2.70;;;30.30;48.20;;;;;;5094967;28;20386;-15
2022/07/03 07:35:51;;;;;;;5.45;3.05;;;30.20;48.40;;;;;;5094969;28;20020;-16
2022/07/03 07:38:18;;;;;;;6.28;3.13;;;30.20;47.90;;;;;;5076383;28;20428;-15
2022/07/03 07:40:44;;;;;;;4.65;3.00;;;30.30;47.90;;;;;;5094657;28;20055;-16
2022/07/03 07:43:10;;;;;;;7.00;3.28;;;30.30;47.70;;;;;;5094409;28;20067;-16
2022/07/03 07:45:36;;;;;;;6.03;2.90;;;30.40;47.70;;;;;;5076471;28;20036;-16
2022/07/03 07:48:02;;;;;;;8.57;3.25;;;30.40;47.20;;;;;;5094458;28;20115;-16
2022/07/03 07:50:28;;;;;;;3.22;2.60;;;30.50;47.10;;;;;;5094502;28;20024;-16
2022/07/03 07:52:54;;;;;;;3.72;2.50;;;30.60;47.30;;;;;;5094314;28;20027;-15
2022/07/03 07:55:20;;;;;;;4.82;2.90;;;30.80;47.00;;;;;;5094261;28;20150;-16
2022/07/03 07:57:48;;;;;;;6.53;2.53;;;30.90;46.60;;;;;;5094204;28;20115;-16
2022/07/03 08:00:18;;;;;;;4.43;2.80;;;31.20;46.60;;;;;;5094295;28;20028;-18
2022/07/03 08:05:37;;;;;;;4.85;2.95;;;31.60;44.70;;;;;;5094538;28;20036;-16
2022/07/03 08:08:09;;;;;;;;;;;31.90;43.80;;;;;;5094872;28;20020;-15
2022/07/03 08:10:45;;;;;;;2.95;2.50;;;32.10;43.90;;;;;;5093883;28;20275;-15
2022/07/03 08:13:14;;;;;;;4.70;2.80;;;32.30;43.60;;;;;;5094013;28;20036;-15
2022/07/03 08:15:41;;;;;;;4.55;2.65;;;32.50;43.30;;;;;;5094247;28;20028;-15
2022/07/03 08:18:07;;;;;;;5.43;2.75;;;32.70;42.40;;;;;;5093941;28;20028;-16
2022/07/03 08:20:34;;;;;;;4.75;2.72;;;33.00;41.40;;;;;;5093032;28;20039;-15
2022/07/03 08:23:01;;;;;;;3.22;2.45;;;33.30;40.60;;;;;;5094055;28;20032;-16
2022/07/03 08:25:27;;;;;;;3.55;2.63;;;33.60;40.50;;;;;;5093764;28;20032;-16
2022/07/03 08:27:53;;;;;;;4.57;2.80;;;33.90;39.90;;;;;;5094027;28;20031;-16
2022/07/03 08:30:19;;;;;;;4.55;2.50;;;34.20;39.80;;;;;;5093450;28;20031;-16
2022/07/03 08:32:50;;;;;;;5.13;2.92;;;34.40;39.50;;;;;;5093741;28;20054;-15
2022/07/03 08:35:17;;;;;;;7.65;2.88;;;34.50;39.00;;;;;;5093615;28;20490;-15
2022/07/03 08:37:46;;;;;;;4.75;2.45;;;34.70;38.80;;;;;;5093583;28;20036;-16
2022/07/03 08:40:13;;;;;;;3.38;2.45;;;34.80;38.70;;;;;;5093550;28;20032;-16
2022/07/03 08:42:46;;;;;;;4.53;2.90;;;34.90;38.40;;;;;;5093689;28;20032;-16
2022/07/03 08:45:19;;;;;;;5.55;2.63;;;35.10;37.90;;;;;;5093837;28;20086;-15
2022/07/03 08:47:46;;;;;;;4.25;2.80;;;35.20;38.20;;;;;;5093118;28;20028;-15
2022/07/03 08:50:15;;;;;;;6.18;2.50;;;35.20;38.10;;;;;;5093448;28;20082;-16
2022/07/03 08:52:42;;;;;;;4.38;2.40;;;35.30;38.30;;;;;;5093680;28;20040;-16
2022/07/03 08:55:09;;;;;;;6.28;2.83;;;35.40;38.10;;;;;;5093577;28;20476;-16
2022/07/03 08:57:43;;;;;;;4.00;2.53;;;35.60;37.70;;;;;;5093374;28;20110;-15
2022/07/03 09:00:15;;;;;;;3.67;2.70;;;35.70;37.80;;;;;;5093318;28;20063;-17
2022/07/03 09:02:44;;;;;;;4.03;2.80;;;35.70;38.10;;;;;;5093436;28;20070;-15
2022/07/03 09:05:11;;;;;;;6.25;2.63;;;35.80;38.30;;;;;;5093390;28;20024;-15
2022/07/03 09:07:40;;;;;;;6.57;2.90;;;36.00;38.00;;;;;;5093500;28;20055;-15
2022/07/03 09:10:12;;;;;;;4.22;3.00;;;36.30;37.40;;;;;;5093134;28;20020;-15
2022/07/03 09:12:38;;;;;;;5.93;2.75;;;36.50;37.10;;;;;;5075004;28;20031;-15
2022/07/03 09:15:07;;;;;;;4.85;2.85;;;36.80;37.10;;;;;;5075086;28;20380;-15
2022/07/03 09:17:33;;;;;;;4.80;2.70;;;36.90;36.70;;;;;;5093065;28;20028;-15
2022/07/03 09:20:03;;;;;;;5.50;2.80;;;37.10;36.40;;;;;;5092893;28;20032;-15
2022/07/03 09:22:31;;;;;;;4.78;2.60;;;37.40;35.80;;;;;;5093159;28;20059;-15
2022/07/03 09:25:09;;;;;;;7.53;2.92;;;37.50;35.80;;;;;;5093334;28;20059;-15
2022/07/03 09:27:49;;;;;;;6.55;3.00;;;37.60;34.80;;;;;;5093348;28;20081;-15
2022/07/03 09:30:15;;;;;;;7.10;2.80;;;37.80;34.90;;;;;;5093936;28;20024;-15
2022/07/03 09:32:46;;;;;;;5.55;2.90;;;37.70;35.50;;;;;;5078917;28;20028;-15
2022/07/03 09:35:17;;;;;;;4.38;2.83;;;37.80;34.70;;;;;;5096943;28;20024;-15
2022/07/03 09:37:56;;;;;;;4.78;2.72;;;37.90;34.50;;;;;;5097094;28;20479;-15
2022/07/03 09:40:46;;;;;;;7.82;3.20;;;38.10;34.80;;;;;;5096787;28;20487;-17
2022/07/03 09:43:13;;;;;;;7.90;2.85;;;38.40;34.00;;;;;;5096780;28;20043;-16
2022/07/03 09:46:00;;;;;;;5.35;2.70;;;38.60;34.20;;;;;;5097017;28;20387;-16
2022/07/03 09:48:31;;;;;;;4.88;2.75;;;38.90;33.80;;;;;;5096551;28;20047;-16
2022/07/03 09:51:18;;;;;;;5.75;2.90;;;39.20;33.70;;;;;;5096768;28;20025;-15
2022/07/03 09:53:53;;;;;;;4.97;3.00;;;39.50;33.30;;;;;;5096968;28;20020;-16
2022/07/03 09:56:21;;;;;;;4.80;2.75;;;39.60;33.00;;;;;;5096761;28;20119;-16
2022/07/03 09:59:19;;;;;;;5.55;2.67;;;39.60;33.30;;;;;;5096886;28;20024;-14
2022/07/03 10:01:46;;;;;;;6.93;3.13;;;39.50;32.90;;;;;;5034478;28;20092;-15
2022/07/03 10:04:18;;;;;;;5.82;3.00;;;39.60;32.60;;;;;;5034078;28;20045;-15
2022/07/03 10:06:56;;;;;;;7.10;3.53;;;39.70;32.40;;;;;;5034722;28;20017;-14
2022/07/03 10:09:42;;;;;;;6.90;3.28;;;39.90;31.70;;;;;;5034359;28;20033;-15
2022/07/03 10:12:09;;;;;;;6.05;2.80;;;40.00;31.90;;;;;;5034349;28;20029;-16
2022/07/03 10:14:35;;;;;;;8.27;3.13;;;40.10;31.80;;;;;;5017166;28;20041;-15
2022/07/03 10:17:02;;;;;;;4.07;3.05;;;40.10;32.00;;;;;;5034436;28;20032;-16
2022/07/03 10:19:30;;;;;;;4.70;2.85;;;40.20;31.80;;;;;;5033887;28;20034;-15
2022/07/03 10:22:02;;;;;;;4.35;3.10;;;40.40;31.90;;;;;;5034081;28;20025;-15
2022/07/03 10:24:31;;;;;;;6.28;3.00;;;40.60;31.90;;;;;;5033696;28;20037;-16
2022/07/03 10:26:59;;;;;;;7.63;3.25;;;41.00;31.50;;;;;;5033831;28;20037;-15
2022/07/03 10:29:27;;;;;;;6.97;3.05;;;41.20;31.30;;;;;;5033778;28;20034;-15
2022/07/03 10:31:54;;;;;;;6.75;3.20;;;41.40;30.80;;;;;;5017101;28;20069;-15
2022/07/03 10:34:22;;;;;;;5.18;3.00;;;41.60;30.40;;;;;;5033366;28;20037;-15
2022/07/03 10:36:55;;;;;;;4.95;3.20;;;41.80;30.40;;;;;;5051896;28;20407;-15
2022/07/03 10:39:33;;;;;;;7.10;3.30;;;41.90;30.00;;;;;;5095876;28;20032;-15
2022/07/03 10:45:03;;;;;;;6.70;3.53;;;42.10;29.60;;;;;;5095801;28;20062;-15
2022/07/03 10:47:49;;;;;;;5.25;3.15;;;42.20;29.20;;;;;;5096049;28;20070;-16
2022/07/03 10:50:21;;;;;;;6.38;3.33;;;42.40;29.50;;;;;;5095663;28;20032;-16
2022/07/03 10:52:48;;;;;;;5.82;3.00;;;42.50;29.20;;;;;;5095465;28;20067;-16
2022/07/03 10:55:16;;;;;;;5.93;3.10;;;42.60;29.80;;;;;;5095867;28;20034;-16
2022/07/03 10:58:03;;;;;;;7.53;3.35;;;42.80;29.70;;;;;;5095450;28;20052;-16
2022/07/03 11:00:29;;;;;;;8.18;3.08;;;43.00;28.80;;;;;;5094839;28;20059;-15
2022/07/03 11:02:55;;;;;;;5.57;3.63;;;43.10;29.20;;;;;;5095259;28;20558;-16
2022/07/03 11:05:26;;;;;;;6.38;3.40;;;43.10;29.20;;;;;;5077132;28;20119;-15
2022/07/03 11:07:55;;;;;;;6.47;3.10;;;42.70;28.70;;;;;;5095338;28;20027;-15
2022/07/03 11:10:24;;;;;;;5.22;3.22;;;42.60;29.30;;;;;;5094949;28;20032;-15
2022/07/03 11:13:00;;;;;;;4.63;3.17;;;42.80;29.30;;;;;;5095728;28;20404;-15
2022/07/03 11:15:41;;;;;;;6.40;3.30;;;43.10;28.80;;;;;;5095444;28;20046;-15
2022/07/03 11:18:17;;;;;;;9.05;3.58;;;43.40;28.00;;;;;;5095330;28;20036;-14
2022/07/03 11:20:43;;;;;;;5.85;3.25;;;43.40;28.40;;;;;;5095100;28;20514;-15
2022/07/03 11:23:27;;;;;;;5.57;3.30;;;43.20;28.60;;;;;;5095148;28;20032;-15
2022/07/03 11:25:54;;;;;;;7.35;3.35;;;42.90;28.80;;;;;;5095167;28;20036;-15
2022/07/03 11:28:32;;;;;;;5.85;3.10;;;42.90;28.90;;;;;;5094627;28;20085;-16
2022/07/03 11:31:19;;;;;;;5.63;3.15;;;42.80;28.70;;;;;;5076690;28;20024;-16
2022/07/03 11:33:53;;;;;;;6.03;3.40;;;43.00;28.40;;;;;;5094700;28;20032;-15
2022/07/03 11:36:25;;;;;;;5.15;3.35;;;43.30;28.10;;;;;;5094846;28;20099;-15
2022/07/03 11:39:04;;;;;;;4.65;2.90;;;43.60;27.80;;;;;;5094591;28;20035;-16
2022/07/03 11:41:44;;;;;;;6.90;3.22;;;43.40;27.80;;;;;;5094621;28;20111;-15
2022/07/03 11:44:16;;;;;;;5.65;3.33;;;43.40;27.70;;;;;;5094752;28;20082;-15
2022/07/03 11:46:48;;;;;;;5.75;3.30;;;43.50;28.60;;;;;;5094901;28;20020;-15
2022/07/03 11:49:25;;;;;;;5.57;3.20;;;43.40;28.60;;;;;;5094290;28;20574;-15
2022/07/03 11:52:02;;;;;;;7.88;3.70;;;43.20;28.90;;;;;;5094707;28;20121;-15
2022/07/03 11:54:51;;;;;;;5.90;3.17;;;43.20;28.50;;;;;;5094173;28;20020;-15
2022/07/03 11:57:17;;;;;;;4.90;3.33;;;43.20;28.70;;;;;;5094599;28;20031;-14
2022/07/03 11:59:44;;;;;;;7.28;3.25;;;43.40;28.30;;;;;;5094515;28;20039;-15
2022/07/03 12:02:10;;;;;;;6.07;3.40;;;43.20;28.00;;;;;;5094860;28;20050;-15
2022/07/03 12:04:38;;;;;;;6.40;3.53;;;43.30;28.70;;;;;;5094310;28;20043;-15
2022/07/03 12:07:04;;;;;;;4.50;3.00;;;43.60;28.20;;;;;;5094384;28;20058;-15
2022/07/03 12:09:37;;;;;;;6.07;3.42;;;43.60;28.20;;;;;;5094385;28;20486;-14
2022/07/03 12:12:11;;;;;;;5.55;3.33;;;43.70;27.40;;;;;;5094118;28;20433;-15
2022/07/03 12:14:47;;;;;;;3.97;3.10;;;43.90;27.60;;;;;;5094629;28;20028;-15
2022/07/03 12:17:15;;;;;;;6.25;3.20;;;44.40;27.90;;;;;;5093964;28;20032;-15
2022/07/03 12:19:50;;;;;;;8.85;3.50;;;44.80;27.70;;;;;;5093800;28;20097;-15
2022/07/03 12:22:31;;;;;;;6.45;3.28;;;45.00;26.80;;;;;;5094239;28;20035;-16
2022/07/03 12:25:04;;;;;;;8.00;3.30;;;45.00;27.00;;;;;;5094569;28;20379;-15
2022/07/03 12:27:33;;;;;;;7.95;3.55;;;45.20;26.80;;;;;;5093835;28;20035;-16
2022/07/03 12:30:00;;;;;;;6.47;3.63;;;45.50;26.10;;;;;;5094081;28;20090;-15
2022/07/03 12:32:26;;;;;;;5.82;3.60;;;45.50;26.30;;;;;;5093484;28;20105;-15
2022/07/03 12:34:53;;;;;;;5.45;3.08;;;45.30;26.30;;;;;;5093795;28;20024;-14
2022/07/03 12:37:40;;;;;;;6.63;3.85;;;45.40;26.50;;;;;;5093611;28;20028;-15
2022/07/03 12:40:08;;;;;;;6.75;3.20;;;45.30;26.10;;;;;;5093624;28;20028;-14
2022/07/03 12:42:49;;;;;;;4.57;3.42;;;45.20;26.90;;;;;;5093662;28;20032;-15
2022/07/03 12:45:17;;;;;;;6.55;3.08;;;45.20;26.70;;;;;;5094210;28;20383;-14
2022/07/03 12:47:44;;;;;;;5.90;3.33;;;45.00;26.90;;;;;;5093520;28;20035;-15
2022/07/03 12:50:11;;;;;;;7.43;3.33;;;45.00;26.90;;;;;;5093707;28;20047;-15
2022/07/03 12:52:57;;;;;;;6.88;3.40;;;45.00;27.00;;;;;;5093162;28;20024;-15
2022/07/03 12:55:29;;;;;;;5.38;3.20;;;44.90;27.00;;;;;;5093400;28;20045;-15
2022/07/03 13:01:02;;;;;;;6.95;3.78;;;45.20;27.50;;;;;;5094506;28;20133;-16
2022/07/03 13:03:36;;;;;;;7.90;3.60;;;45.20;26.90;;;;;;5093731;28;20031;-15
2022/07/03 13:06:02;;;;;;;7.72;3.65;;;44.90;26.40;;;;;;5092745;28;20475;-14
2022/07/03 13:08:28;;;;;;;5.47;3.20;;;44.50;27.30;;;;;;5093034;28;20413;-15
2022/07/03 13:10:58;;;;;;;5.55;3.10;;;44.40;27.60;;;;;;5093165;28;20086;-14
2022/07/03 13:13:26;;;;;;;5.53;3.35;;;44.50;27.40;;;;;;5093585;28;20382;-14
2022/07/03 13:15:53;;;;;;;5.15;3.20;;;44.70;27.40;;;;;;5093114;28;20068;-15